createdAt,value
2022-10-13T00:00:55.465Z,16.10
2022-10-13T00:03:22.223Z,16.80
2022-10-13T00:05:49.568Z,15.80
2022-10-13T00:08:19.375Z,17.70
2022-10-13T00:10:47.478Z,16.30
2022-10-13T00:13:14.341Z,15.60
2022-10-13T00:18:08.170Z,15.70
2022-10-13T00:23:01.707Z,13.80
2022-10-13T00:25:28.366Z,15.00
2022-10-13T00:27:55.015Z,14.30
2022-10-13T00:30:23.242Z,14.50
2022-10-13T00:32:50.443Z,13.50
2022-10-13T00:35:17.299Z,15.30
2022-10-13T00:40:11.258Z,15.30
2022-10-13T00:42:40.825Z,13.80
2022-10-13T00:45:29.527Z,14.90
2022-10-13T00:47:57.943Z,14.00
2022-10-13T00:50:27.772Z,14.70
2022-10-13T00:52:54.798Z,13.60
2022-10-13T00:55:23.014Z,15.10
2022-10-13T00:57:54.603Z,14.40
2022-10-13T01:00:25.664Z,18.60
2022-10-13T01:02:52.405Z,24.40
2022-10-13T01:07:49.300Z,21.00
2022-10-13T01:10:27.950Z,18.10
2022-10-13T01:13:02.093Z,15.90
2022-10-13T01:15:35.837Z,18.50
2022-10-13T01:18:10.418Z,17.00
2022-10-13T01:20:47.859Z,15.50
2022-10-13T01:23:27.676Z,16.20
2022-10-13T01:26:24.850Z,14.50
2022-10-13T01:29:22.922Z,14.10
2022-10-13T01:31:59.367Z,12.20
2022-10-13T01:34:44.542Z,14.10
2022-10-13T01:37:16.671Z,15.50
2022-10-13T01:40:04.423Z,14.60
2022-10-13T01:42:43.092Z,14.30
2022-10-13T01:45:12.534Z,14.00
2022-10-13T01:47:39.186Z,13.50
2022-10-13T01:50:06.801Z,13.90
2022-10-13T01:52:35.985Z,13.10
2022-10-13T01:55:10.341Z,11.90
2022-10-13T01:57:39.566Z,13.20
2022-10-13T02:00:17.109Z,13.20
2022-10-13T02:03:08.648Z,14.00
2022-10-13T02:05:43.922Z,12.90
2022-10-13T02:08:13.065Z,13.90
2022-10-13T02:10:52.836Z,14.20
2022-10-13T02:13:20.205Z,13.90
2022-10-13T02:15:49.308Z,14.00
2022-10-13T02:18:18.900Z,14.10
2022-10-13T02:20:46.042Z,13.30
2022-10-13T02:23:14.303Z,10.80
2022-10-13T02:25:40.971Z,13.20
2022-10-13T02:28:07.677Z,11.10
2022-10-13T02:30:42.199Z,11.40
2022-10-13T02:33:08.908Z,11.00
2022-10-13T02:35:37.461Z,10.60
2022-10-13T02:40:31.008Z,8.30
2022-10-13T02:45:24.591Z,9.20
2022-10-13T02:47:55.744Z,8.60
2022-10-13T02:50:22.474Z,10.30
2022-10-13T02:52:50.279Z,8.60
2022-10-13T02:55:16.978Z,10.10
2022-10-13T02:57:43.969Z,8.10
2022-10-13T03:00:11.526Z,9.10
2022-10-13T03:02:38.183Z,8.20
2022-10-13T03:05:05.281Z,8.10
2022-10-13T03:07:31.936Z,8.00
2022-10-13T03:09:58.587Z,7.40
2022-10-13T03:12:25.259Z,8.90
2022-10-13T03:14:51.921Z,7.50
2022-10-13T03:17:18.647Z,7.00
2022-10-13T03:19:45.362Z,7.60
2022-10-13T03:22:15.395Z,8.70
2022-10-13T03:24:42.514Z,7.50
2022-10-13T03:27:09.337Z,8.30
2022-10-13T03:32:02.642Z,8.40
2022-10-13T03:34:29.426Z,8.00
2022-10-13T03:36:56.079Z,7.70
2022-10-13T03:39:22.741Z,8.00
2022-10-13T03:41:49.755Z,8.10
2022-10-13T03:44:16.447Z,8.20
2022-10-13T03:46:43.158Z,9.30
2022-10-13T03:49:11.340Z,9.60
2022-10-13T03:51:38.367Z,9.10
2022-10-13T03:54:05.088Z,9.40
2022-10-13T03:56:31.860Z,8.00
2022-10-13T04:01:28.029Z,8.00
2022-10-13T04:03:55.748Z,8.20
2022-10-13T04:06:22.944Z,8.10
2022-10-13T04:08:49.764Z,8.30
2022-10-13T04:13:43.402Z,8.40
2022-10-13T04:18:44.450Z,10.70
2022-10-13T04:21:13.415Z,13.70
2022-10-13T04:23:40.082Z,15.80
2022-10-13T04:26:06.796Z,12.70
2022-10-13T04:31:04.262Z,10.40
2022-10-13T04:35:57.692Z,7.60
2022-10-13T04:40:51.167Z,9.60
2022-10-13T04:45:12.174Z,11.80
2022-10-13T04:47:40.277Z,10.50
2022-10-13T04:52:34.979Z,10.00
2022-10-13T04:55:04.168Z,10.90
2022-10-13T04:57:30.833Z,10.30
2022-10-13T04:59:57.540Z,9.80
2022-10-13T05:02:24.206Z,10.90
2022-10-13T05:04:50.893Z,11.10
2022-10-13T05:07:18.919Z,10.50
2022-10-13T05:09:46.711Z,9.60
2022-10-13T05:12:13.389Z,10.00
2022-10-13T05:14:40.060Z,23.30
2022-10-13T05:17:07.601Z,15.20
2022-10-13T05:22:01.080Z,12.20
2022-10-13T05:24:36.769Z,10.30
2022-10-13T05:27:05.682Z,8.90
2022-10-13T05:29:34.674Z,8.60
2022-10-13T05:32:01.365Z,9.50
2022-10-13T05:34:28.058Z,14.20
2022-10-13T05:36:54.718Z,12.60
2022-10-13T05:39:21.506Z,9.50
2022-10-13T05:44:20.267Z,8.70
2022-10-13T05:46:53.353Z,8.80
2022-10-13T05:51:48.061Z,9.90
2022-10-13T05:54:34.163Z,10.90
2022-10-13T05:57:14.852Z,10.50
2022-10-13T05:59:44.335Z,10.40
2022-10-13T06:02:12.198Z,8.40
2022-10-13T06:04:41.565Z,9.30
2022-10-13T06:07:08.348Z,12.10
2022-10-13T06:09:36.304Z,10.40
2022-10-13T06:12:03.233Z,9.70
2022-10-13T06:14:30.334Z,9.30
2022-10-13T06:16:57.009Z,10.00
2022-10-13T06:19:23.754Z,16.80
2022-10-13T06:24:17.152Z,11.20
2022-10-13T06:29:10.667Z,11.70
2022-10-13T06:31:37.532Z,9.50
2022-10-13T06:36:31.531Z,11.60
2022-10-13T06:38:58.648Z,29.50
2022-10-13T06:41:25.502Z,29.00
2022-10-13T06:46:21.108Z,17.30
2022-10-13T06:51:17.981Z,15.70
2022-10-13T06:53:45.121Z,11.60
2022-10-13T06:58:38.583Z,12.30
2022-10-13T07:03:32.451Z,9.50
2022-10-13T07:06:02.931Z,9.40
2022-10-13T07:08:29.924Z,8.50
2022-10-13T07:10:56.935Z,10.30
2022-10-13T07:13:23.656Z,10.60
2022-10-13T07:15:50.546Z,10.70
2022-10-13T07:18:17.234Z,14.30
2022-10-13T07:20:44.654Z,13.60
2022-10-13T07:23:11.346Z,14.50
2022-10-13T07:25:38.063Z,15.10
2022-10-13T07:28:05.220Z,14.40
2022-10-13T07:33:00.094Z,14.70
2022-10-13T07:35:30.512Z,20.10
2022-10-13T07:37:57.994Z,14.50
2022-10-13T07:42:51.661Z,12.20
2022-10-13T07:47:45.122Z,14.10
2022-10-13T07:52:38.813Z,13.90
2022-10-13T07:57:39.615Z,13.60
2022-10-13T08:00:06.904Z,13.40
2022-10-13T08:02:39.040Z,15.90
2022-10-13T08:05:05.865Z,15.30
2022-10-13T08:07:32.609Z,14.90
2022-10-13T08:12:26.037Z,15.40
2022-10-13T08:17:19.639Z,13.50
2022-10-13T08:19:46.566Z,14.50
2022-10-13T08:24:39.962Z,13.40
2022-10-13T08:27:06.724Z,12.30
2022-10-13T08:29:35.633Z,12.90
2022-10-13T08:34:29.465Z,11.90
2022-10-13T08:36:57.364Z,12.10
2022-10-13T08:39:24.348Z,13.90
2022-10-13T08:41:51.340Z,150.90
2022-10-13T08:45:06.384Z,45.90
2022-10-13T08:47:44.948Z,19.40
2022-10-13T08:50:14.447Z,14.60
2022-10-13T08:52:54.109Z,13.00
2022-10-13T08:55:29.859Z,12.40
2022-10-13T08:57:57.014Z,12.40
2022-10-13T09:00:27.135Z,12.10
2022-10-13T09:02:54.256Z,12.80
2022-10-13T09:05:40.561Z,13.90
2022-10-13T09:08:12.485Z,11.10
2022-10-13T09:11:00.172Z,10.00
2022-10-13T09:13:27.581Z,9.50
2022-10-13T09:15:56.744Z,9.90
2022-10-13T09:18:30.668Z,10.10
2022-10-13T09:21:21.259Z,10.70
2022-10-13T09:23:50.208Z,12.10
2022-10-13T09:26:22.047Z,10.60
2022-10-13T09:28:49.563Z,11.90
2022-10-13T09:31:35.797Z,15.60
2022-10-13T09:34:12.374Z,16.20
2022-10-13T09:36:39.359Z,18.60
2022-10-13T09:39:16.160Z,16.80
2022-10-13T09:41:44.725Z,18.10
2022-10-13T09:44:18.767Z,14.90
2022-10-13T09:46:51.748Z,14.80
2022-10-13T09:49:36.431Z,16.30
2022-10-13T09:52:14.578Z,16.90
2022-10-13T09:54:45.370Z,13.70
2022-10-13T09:57:17.540Z,12.20
2022-10-13T09:59:50.321Z,13.10
2022-10-13T10:02:29.448Z,12.60
2022-10-13T10:04:58.467Z,12.50
2022-10-13T10:07:27.339Z,11.90
2022-10-13T10:10:01.026Z,11.90
2022-10-13T10:12:29.694Z,12.60
2022-10-13T10:14:56.735Z,13.50
2022-10-13T10:17:35.071Z,11.50
2022-10-13T10:20:14.452Z,11.30
2022-10-13T10:23:01.155Z,11.90
2022-10-13T10:25:39.500Z,10.80
2022-10-13T10:28:44.343Z,11.90
2022-10-13T10:31:30.822Z,11.20
2022-10-13T10:34:14.839Z,10.90
2022-10-13T10:36:52.817Z,10.30
2022-10-13T10:42:04.434Z,9.00
2022-10-13T10:44:33.651Z,9.30
2022-10-13T10:47:09.844Z,9.70
2022-10-13T10:49:39.345Z,9.30
2022-10-13T10:52:08.363Z,7.90
2022-10-13T10:54:49.106Z,8.10
2022-10-13T10:57:26.750Z,6.90
2022-10-13T11:00:07.421Z,7.40
2022-10-13T11:02:52.199Z,6.10
2022-10-13T11:05:19.073Z,6.50
2022-10-13T11:07:46.630Z,6.30
2022-10-13T11:10:13.460Z,6.70
2022-10-13T11:12:52.562Z,7.50
2022-10-13T11:15:24.373Z,7.70
2022-10-13T11:17:51.431Z,7.60
2022-10-13T11:20:21.280Z,6.60
2022-10-13T11:23:00.444Z,6.00
2022-10-13T11:25:46.726Z,5.90
2022-10-13T11:28:22.940Z,5.30
2022-10-13T11:30:51.072Z,5.00
2022-10-13T11:33:39.734Z,5.40
2022-10-13T11:36:43.972Z,4.80
2022-10-13T11:39:27.709Z,8.20
2022-10-13T11:41:57.611Z,5.60
2022-10-13T11:44:46.175Z,4.00
2022-10-13T11:47:58.124Z,4.30
2022-10-13T11:50:39.732Z,5.80
2022-10-13T11:53:32.646Z,4.30
2022-10-13T11:56:01.629Z,4.70
2022-10-13T11:58:32.212Z,5.30
2022-10-13T12:01:02.209Z,4.50
2022-10-13T12:03:31.290Z,5.20
2022-10-13T12:06:01.121Z,3.90
2022-10-13T12:08:28.060Z,3.20
2022-10-13T12:10:57.310Z,3.10
2022-10-13T12:13:25.912Z,4.00
2022-10-13T12:16:05.286Z,3.80
2022-10-13T12:18:34.343Z,4.50
2022-10-13T12:21:03.233Z,5.10
2022-10-13T12:23:31.334Z,4.70
2022-10-13T12:25:58.855Z,4.20
2022-10-13T12:28:31.110Z,11.40
2022-10-13T12:30:59.673Z,4.30
2022-10-13T12:33:35.586Z,4.40
2022-10-13T12:36:22.584Z,4.00
2022-10-13T12:38:50.890Z,3.40
2022-10-13T12:41:19.296Z,4.10
2022-10-13T12:43:46.074Z,3.50
2022-10-13T12:48:40.314Z,5.10
2022-10-13T12:51:16.406Z,4.50
2022-10-13T12:53:44.231Z,3.00
2022-10-13T12:56:19.837Z,3.40
2022-10-13T12:58:46.611Z,2.70
2022-10-13T13:03:40.689Z,3.30
2022-10-13T13:06:14.346Z,4.00
2022-10-13T13:08:42.037Z,3.80
2022-10-13T13:11:32.961Z,4.80
2022-10-13T13:14:25.560Z,3.20
2022-10-13T13:17:06.252Z,3.10
2022-10-13T13:19:34.676Z,3.50
2022-10-13T13:22:01.797Z,3.20
2022-10-13T13:24:39.247Z,3.90
2022-10-13T13:27:18.757Z,2.90
2022-10-13T13:29:45.772Z,3.40
2022-10-13T13:32:14.032Z,3.30
2022-10-13T13:34:40.960Z,3.10
2022-10-13T13:37:35.533Z,4.20
2022-10-13T13:40:02.473Z,3.30
2022-10-13T13:42:29.423Z,4.20
2022-10-13T13:44:56.419Z,3.20
2022-10-13T13:47:24.558Z,3.50
2022-10-13T13:49:53.558Z,3.40
2022-10-13T13:52:21.974Z,3.30
2022-10-13T13:54:49.175Z,3.40
2022-10-13T13:57:16.094Z,3.40
2022-10-13T13:59:42.884Z,3.90
2022-10-13T14:04:40.700Z,6.60
2022-10-13T14:07:07.506Z,14.00
2022-10-13T14:09:34.228Z,20.40
2022-10-13T14:14:30.270Z,33.70
2022-10-13T14:16:57.774Z,25.30
2022-10-13T14:19:24.476Z,13.20
2022-10-13T14:24:18.666Z,14.90
2022-10-13T14:26:45.375Z,15.80
2022-10-13T14:31:38.902Z,14.20
2022-10-13T14:36:32.630Z,12.40
2022-10-13T14:41:26.269Z,15.30
2022-10-13T14:43:54.596Z,14.50
2022-10-13T14:46:21.467Z,15.40
2022-10-13T14:48:48.190Z,14.90
2022-10-13T14:53:55.091Z,16.90
2022-10-13T14:56:23.403Z,15.90
2022-10-13T14:58:54.011Z,16.70
2022-10-13T15:01:20.786Z,15.70
2022-10-13T15:06:15.708Z,13.90
2022-10-13T15:08:42.693Z,12.80
2022-10-13T15:11:09.517Z,14.00
2022-10-13T15:16:04.855Z,12.60
2022-10-13T15:18:32.055Z,13.70
2022-10-13T15:20:58.839Z,13.20
2022-10-13T15:25:59.270Z,12.70
2022-10-13T15:28:28.655Z,13.30
2022-10-13T15:30:55.562Z,58.90
2022-10-13T15:33:22.546Z,24.90
2022-10-13T15:35:50.151Z,28.40
2022-10-13T15:38:17.559Z,29.10
2022-10-13T15:40:44.240Z,21.60
2022-10-13T15:45:37.616Z,24.20
2022-10-13T15:50:34.746Z,24.80
2022-10-13T15:53:01.449Z,25.30
2022-10-13T15:57:55.478Z,25.80
2022-10-13T16:02:49.866Z,31.10
2022-10-13T16:05:16.760Z,30.10
2022-10-13T16:10:12.223Z,27.40
2022-10-13T16:12:39.235Z,26.30
2022-10-13T16:15:06.890Z,27.90
2022-10-13T16:17:33.651Z,26.10
2022-10-13T16:22:27.218Z,25.70
2022-10-13T16:27:20.694Z,28.00
2022-10-13T16:32:13.964Z,26.10
2022-10-13T16:34:40.651Z,26.80
2022-10-13T16:39:34.941Z,24.80
2022-10-13T16:42:03.284Z,24.00
2022-10-13T16:46:58.019Z,22.10
2022-10-13T16:49:26.085Z,25.20
2022-10-13T16:51:52.850Z,27.60
2022-10-13T16:56:46.954Z,23.80
2022-10-13T17:02:05.073Z,26.70
2022-10-13T17:04:31.817Z,24.60
2022-10-13T17:09:25.152Z,23.00
2022-10-13T17:11:51.934Z,24.00
2022-10-13T17:16:45.503Z,25.50
2022-10-13T17:21:39.196Z,24.00
2022-10-13T17:24:08.463Z,29.20
2022-10-13T17:29:02.233Z,24.30
2022-10-13T17:31:29.085Z,23.30
2022-10-13T17:36:24.792Z,22.50
2022-10-13T17:38:51.790Z,21.90
2022-10-13T17:41:18.822Z,22.70
2022-10-13T17:43:48.868Z,25.80
2022-10-13T17:46:39.498Z,25.60
2022-10-13T17:49:07.515Z,30.00
2022-10-13T17:51:34.295Z,32.10
2022-10-13T17:56:28.051Z,31.40
2022-10-13T17:58:55.182Z,34.20
2022-10-13T18:01:26.287Z,34.10
2022-10-13T18:03:54.465Z,43.70
2022-10-13T18:06:32.619Z,47.70
2022-10-13T18:09:05.939Z,57.20
2022-10-13T18:11:33.996Z,47.60
2022-10-13T18:14:00.844Z,56.70
2022-10-13T18:18:54.394Z,49.30
2022-10-13T18:23:55.728Z,38.60
2022-10-13T18:26:22.748Z,39.50
2022-10-13T18:28:49.837Z,41.60
2022-10-13T18:31:32.273Z,41.00
2022-10-13T18:34:00.777Z,39.70
2022-10-13T18:36:29.490Z,37.50
2022-10-13T18:39:00.845Z,40.00
2022-10-13T18:41:27.635Z,40.70
2022-10-13T18:46:22.988Z,40.80
2022-10-13T18:48:50.242Z,41.60
2022-10-13T18:53:46.966Z,39.70
2022-10-13T18:56:15.619Z,40.40
2022-10-13T18:58:42.558Z,39.90
2022-10-13T19:01:11.038Z,40.70
2022-10-13T19:03:38.738Z,37.80
2022-10-13T19:06:09.283Z,36.70
2022-10-13T19:08:36.176Z,38.60
2022-10-13T19:13:36.837Z,33.30
2022-10-13T19:18:30.224Z,32.10
2022-10-13T19:23:24.327Z,33.00
2022-10-13T19:25:51.092Z,34.50
2022-10-13T19:30:44.732Z,31.70
2022-10-13T19:35:48.060Z,29.60
2022-10-13T19:38:15.349Z,31.00
2022-10-13T19:40:43.166Z,29.90
2022-10-13T19:43:10.246Z,28.10
2022-10-13T19:45:37.051Z,30.60
2022-10-13T19:48:07.223Z,30.60
2022-10-13T19:53:00.574Z,30.90
2022-10-13T19:57:54.769Z,34.70
2022-10-13T20:00:21.504Z,38.50
2022-10-13T20:05:15.055Z,41.80
2022-10-13T20:07:41.711Z,37.90
2022-10-13T20:10:08.461Z,35.00
2022-10-13T20:12:37.380Z,36.30
2022-10-13T20:15:04.296Z,33.90
2022-10-13T20:17:30.984Z,41.90
2022-10-13T20:19:57.781Z,39.10
2022-10-13T20:24:51.082Z,38.60
2022-10-13T20:29:44.453Z,36.30
2022-10-13T20:32:11.210Z,36.70
2022-10-13T20:37:04.542Z,35.30
2022-10-13T20:41:57.899Z,34.20
2022-10-13T20:44:24.698Z,33.10
2022-10-13T20:49:21.463Z,32.20
2022-10-13T20:51:48.138Z,32.80
2022-10-13T20:54:15.050Z,31.80
2022-10-13T20:56:41.778Z,31.30
2022-10-13T20:59:10.757Z,30.10
2022-10-13T21:01:37.684Z,30.90
2022-10-13T21:04:04.581Z,28.40
2022-10-13T21:09:00.240Z,28.20
2022-10-13T21:13:54.130Z,24.70
2022-10-13T21:16:29.060Z,26.10
2022-10-13T21:18:56.512Z,26.30
2022-10-13T21:21:25.112Z,25.30
2022-10-13T21:23:52.631Z,22.80
2022-10-13T21:26:21.998Z,24.40
2022-10-13T21:28:49.402Z,22.90
2022-10-13T21:31:16.480Z,22.50
2022-10-13T21:33:43.363Z,22.60
2022-10-13T21:36:12.289Z,21.50
2022-10-13T21:38:41.816Z,21.50
2022-10-13T21:41:09.558Z,22.20
2022-10-13T21:43:36.251Z,20.40
2022-10-13T21:46:12.978Z,19.70
2022-10-13T21:48:43.305Z,19.10
2022-10-13T21:51:18.222Z,19.70
2022-10-13T21:53:52.620Z,19.80
2022-10-13T21:56:19.619Z,19.60
2022-10-13T21:58:46.524Z,19.00
2022-10-13T22:01:13.364Z,18.80
2022-10-13T22:03:41.658Z,20.20
2022-10-13T22:06:18.250Z,20.80
2022-10-13T22:08:46.264Z,22.60
2022-10-13T22:11:13.984Z,22.90
2022-10-13T22:16:09.416Z,21.30
2022-10-13T22:18:40.878Z,23.40
2022-10-13T22:21:09.029Z,27.50
2022-10-13T22:23:35.758Z,23.90
2022-10-13T22:28:32.282Z,23.10
2022-10-13T22:31:05.722Z,23.60
2022-10-13T22:33:33.805Z,22.20
2022-10-13T22:36:00.503Z,21.80
2022-10-13T22:38:27.249Z,23.40
2022-10-13T22:43:20.611Z,18.40
2022-10-13T22:48:20.049Z,18.60
2022-10-13T22:50:46.782Z,22.10
2022-10-13T22:55:40.737Z,22.10
2022-10-13T22:58:07.670Z,22.30
2022-10-13T23:00:37.783Z,22.40
2022-10-13T23:03:04.951Z,21.60
2022-10-13T23:05:31.801Z,23.40
2022-10-13T23:10:25.185Z,22.50
2022-10-13T23:12:51.859Z,23.70
2022-10-13T23:15:18.532Z,24.90
2022-10-13T23:20:12.126Z,24.70
2022-10-13T23:22:38.813Z,22.20
2022-10-13T23:27:32.337Z,23.20
2022-10-13T23:29:59.027Z,22.70
2022-10-13T23:34:52.319Z,18.60
2022-10-13T23:37:19.682Z,18.90
2022-10-13T23:39:46.733Z,20.70
2022-10-13T23:42:13.395Z,19.70
2022-10-13T23:44:40.084Z,19.70
2022-10-13T23:49:33.377Z,18.00
2022-10-13T23:54:26.709Z,19.50
2022-10-13T23:56:53.421Z,20.00
2022-10-13T23:59:20.091Z,18.10
